createdAt,value
2023-04-18T00:01:10.217Z,74.81
2023-04-18T00:03:33.415Z,74.74
2023-04-18T00:05:56.483Z,75.15
2023-04-18T00:08:19.241Z,75.09
2023-04-18T00:10:42.264Z,74.84
2023-04-18T00:13:04.937Z,74.98
2023-04-18T00:15:29.287Z,75.12
2023-04-18T00:17:52.493Z,75.08
2023-04-18T00:20:15.318Z,75.29
2023-04-18T00:22:42.758Z,75.39
2023-04-18T00:25:06.029Z,75.43
2023-04-18T00:27:28.681Z,75.40
2023-04-18T00:29:52.028Z,75.48
2023-04-18T00:32:15.091Z,75.71
2023-04-18T00:34:38.169Z,75.51
2023-04-18T00:37:00.761Z,75.81
2023-04-18T00:39:23.529Z,75.80
2023-04-18T00:41:46.218Z,75.86
2023-04-18T00:44:08.842Z,75.86
2023-04-18T00:46:32.193Z,76.42
2023-04-18T00:48:55.049Z,76.35
2023-04-18T00:51:17.879Z,76.28
2023-04-18T00:53:42.161Z,76.11
2023-04-18T00:56:06.183Z,76.38
2023-04-18T00:58:28.783Z,76.50
2023-04-18T01:00:52.227Z,76.35
2023-04-18T01:03:15.531Z,76.44
2023-04-18T01:05:38.376Z,76.40
2023-04-18T01:08:01.440Z,76.44
2023-04-18T01:10:24.268Z,76.58
2023-04-18T01:12:46.876Z,76.41
2023-04-18T01:15:10.771Z,76.87
2023-04-18T01:17:36.667Z,76.58
2023-04-18T01:20:01.855Z,77.13
2023-04-18T01:22:24.645Z,77.19
2023-04-18T01:24:47.252Z,77.02
2023-04-18T01:27:13.614Z,76.77
2023-04-18T01:29:37.863Z,76.75
2023-04-18T01:32:02.737Z,76.95
2023-04-18T01:34:25.306Z,76.84
2023-04-18T01:36:48.451Z,76.80
2023-04-18T01:39:11.211Z,76.81
2023-04-18T01:41:34.257Z,76.99
2023-04-18T01:43:56.866Z,76.74
2023-04-18T01:46:19.743Z,76.76
2023-04-18T01:48:43.262Z,76.78
2023-04-18T01:51:06.545Z,76.89
2023-04-18T01:53:29.186Z,77.10
2023-04-18T01:55:51.751Z,77.54
2023-04-18T01:58:16.271Z,77.81
2023-04-18T02:00:39.329Z,77.77
2023-04-18T02:03:02.113Z,77.61
2023-04-18T02:05:27.120Z,77.66
2023-04-18T02:07:50.460Z,78.06
2023-04-18T02:10:13.326Z,77.60
2023-04-18T02:12:36.195Z,77.50
2023-04-18T02:14:58.772Z,77.29
2023-04-18T02:17:23.518Z,76.93
2023-04-18T02:19:46.720Z,76.80
2023-04-18T02:22:09.400Z,76.23
2023-04-18T02:24:33.081Z,75.61
2023-04-18T02:26:55.793Z,75.56
2023-04-18T02:29:18.505Z,75.40
2023-04-18T02:31:41.931Z,75.48
2023-04-18T02:34:04.603Z,75.60
2023-04-18T02:36:28.242Z,75.97
2023-04-18T02:38:51.088Z,75.71
2023-04-18T02:41:19.511Z,75.72
2023-04-18T02:43:43.267Z,75.65
2023-04-18T02:46:06.175Z,75.82
2023-04-18T02:48:29.190Z,75.74
2023-04-18T02:50:52.109Z,75.75
2023-04-18T02:53:14.987Z,76.03
2023-04-18T02:55:49.908Z,76.09
2023-04-18T02:58:13.313Z,76.63
2023-04-18T03:00:56.911Z,76.57
2023-04-18T03:03:38.560Z,77.03
2023-04-18T03:06:18.405Z,77.81
2023-04-18T03:08:41.899Z,78.27
2023-04-18T03:11:05.285Z,78.64
2023-04-18T03:13:28.550Z,79.39
2023-04-18T03:15:52.120Z,80.26
2023-04-18T03:18:14.838Z,81.36
2023-04-18T03:20:39.148Z,82.85
2023-04-18T03:23:03.034Z,83.39
2023-04-18T03:25:26.583Z,84.04
2023-04-18T03:27:49.549Z,84.43
2023-04-18T03:30:14.144Z,85.50
2023-04-18T03:32:39.235Z,85.65
2023-04-18T03:35:02.561Z,85.84
2023-04-18T03:37:25.448Z,85.98
2023-04-18T03:39:50.755Z,86.12
2023-04-18T03:42:13.802Z,86.52
2023-04-18T03:44:37.694Z,86.28
2023-04-18T03:47:00.453Z,86.47
2023-04-18T03:49:24.886Z,86.64
2023-04-18T03:51:48.080Z,86.51
2023-04-18T03:54:11.005Z,85.04
2023-04-18T03:56:33.707Z,85.67
2023-04-18T03:58:56.519Z,85.89
2023-04-18T04:01:19.671Z,85.35
2023-04-18T04:03:42.517Z,85.79
2023-04-18T04:06:06.272Z,85.28
2023-04-18T04:08:29.273Z,85.08
2023-04-18T04:10:52.622Z,85.18
2023-04-18T04:13:15.733Z,84.54
2023-04-18T04:15:39.049Z,84.02
2023-04-18T04:18:05.728Z,84.27
2023-04-18T04:20:30.896Z,84.36
2023-04-18T04:23:01.303Z,83.59
2023-04-18T04:25:28.617Z,83.40
2023-04-18T04:27:54.530Z,83.94
2023-04-18T04:30:18.957Z,83.35
2023-04-18T04:32:42.130Z,82.88
2023-04-18T04:35:05.463Z,82.56
2023-04-18T04:37:28.515Z,82.74
2023-04-18T04:40:11.656Z,82.50
2023-04-18T04:42:42.328Z,82.42
2023-04-18T04:45:12.494Z,81.65
2023-04-18T04:47:35.655Z,81.95
2023-04-18T04:49:58.449Z,82.10
2023-04-18T04:52:21.188Z,81.05
2023-04-18T04:54:45.920Z,81.22
2023-04-18T04:57:11.015Z,80.78
2023-04-18T04:59:33.739Z,81.31
2023-04-18T05:01:57.523Z,81.07
2023-04-18T05:04:20.497Z,80.65
2023-04-18T05:06:43.687Z,80.66
2023-04-18T05:09:06.663Z,80.28
2023-04-18T05:11:29.323Z,80.48
2023-04-18T05:13:52.121Z,80.17
2023-04-18T05:16:15.025Z,79.55
2023-04-18T05:18:39.394Z,79.39
2023-04-18T05:21:02.499Z,79.95
2023-04-18T05:23:25.441Z,79.65
2023-04-18T05:25:48.174Z,79.65
2023-04-18T05:28:11.430Z,79.16
2023-04-18T05:30:34.517Z,79.04
2023-04-18T05:32:57.493Z,79.07
2023-04-18T05:35:20.214Z,78.63
2023-04-18T05:37:43.053Z,78.55
2023-04-18T05:40:12.240Z,78.32
2023-04-18T05:42:36.102Z,78.43
2023-04-18T05:44:59.388Z,79.19
2023-04-18T05:47:24.243Z,79.13
2023-04-18T05:49:47.651Z,79.18
2023-04-18T05:52:11.496Z,78.65
2023-04-18T05:54:34.132Z,79.51
2023-04-18T05:56:57.372Z,79.83
2023-04-18T05:59:21.746Z,80.59
2023-04-18T06:01:44.475Z,80.23
2023-04-18T06:04:08.679Z,79.98
2023-04-18T06:06:31.650Z,79.98
2023-04-18T06:08:54.855Z,80.62
2023-04-18T06:11:20.160Z,82.27
2023-04-18T06:13:43.176Z,83.22
2023-04-18T06:16:06.272Z,82.22
2023-04-18T06:18:30.592Z,83.30
2023-04-18T06:20:55.132Z,84.06
2023-04-18T06:23:17.691Z,82.28
2023-04-18T06:25:43.855Z,83.30
2023-04-18T06:28:08.160Z,83.36
2023-04-18T06:30:31.078Z,82.14
2023-04-18T06:32:53.831Z,83.47
2023-04-18T06:35:16.882Z,83.05
2023-04-18T06:37:44.089Z,83.20
2023-04-18T06:40:07.652Z,82.42
2023-04-18T06:42:30.302Z,81.61
2023-04-18T06:44:53.867Z,81.21
2023-04-18T06:47:16.738Z,81.32
2023-04-18T06:49:39.750Z,80.95
2023-04-18T06:52:02.851Z,79.78
2023-04-18T06:54:27.469Z,76.86
2023-04-18T06:56:50.598Z,78.22
2023-04-18T06:59:13.587Z,74.63
2023-04-18T07:01:42.464Z,74.04
2023-04-18T07:04:05.678Z,72.10
2023-04-18T07:06:28.600Z,70.66
2023-04-18T07:08:53.946Z,72.35
2023-04-18T07:11:18.669Z,71.00
2023-04-18T07:13:41.459Z,72.31
2023-04-18T07:16:04.690Z,69.99
2023-04-18T07:18:37.336Z,68.46
2023-04-18T07:21:01.956Z,68.02
2023-04-18T07:23:24.968Z,68.02
2023-04-18T07:25:47.725Z,67.61
2023-04-18T07:28:10.360Z,67.80
2023-04-18T07:30:33.233Z,67.35
2023-04-18T07:32:56.027Z,67.10
2023-04-18T07:35:18.886Z,67.77
2023-04-18T07:37:41.566Z,67.28
2023-04-18T07:40:05.334Z,64.10
2023-04-18T07:42:28.177Z,63.58
2023-04-18T07:44:51.396Z,63.29
2023-04-18T07:47:15.059Z,63.47
2023-04-18T07:49:38.251Z,61.15
2023-04-18T07:52:01.264Z,61.41
2023-04-18T07:54:24.040Z,62.70
2023-04-18T07:56:48.200Z,62.71
2023-04-18T07:59:11.728Z,62.94
2023-04-18T08:01:34.480Z,60.54
2023-04-18T08:04:04.485Z,60.46
2023-04-18T08:06:28.473Z,61.10
2023-04-18T08:08:51.246Z,59.60
2023-04-18T08:11:14.333Z,60.30
2023-04-18T08:13:37.070Z,58.04
2023-04-18T08:16:00.268Z,58.83
2023-04-18T08:18:23.456Z,58.04
2023-04-18T08:20:47.381Z,57.43
2023-04-18T08:23:12.818Z,57.97
2023-04-18T08:25:36.447Z,55.25
2023-04-18T08:28:00.723Z,55.78
2023-04-18T08:30:24.849Z,56.97
2023-04-18T08:32:47.605Z,57.14
2023-04-18T08:35:10.196Z,56.24
2023-04-18T08:37:38.352Z,56.08
2023-04-18T08:40:06.342Z,56.45
2023-04-18T08:42:29.964Z,56.84
2023-04-18T08:44:52.696Z,54.82
2023-04-18T08:47:16.478Z,54.51
2023-04-18T08:49:40.290Z,54.02
2023-04-18T08:52:10.440Z,54.49
2023-04-18T08:54:37.444Z,54.44
2023-04-18T08:57:07.654Z,54.47
2023-04-18T08:59:35.607Z,53.36
2023-04-18T09:01:59.265Z,53.73
2023-04-18T09:04:35.727Z,55.16
2023-04-18T09:06:58.497Z,54.41
2023-04-18T09:09:27.442Z,53.30
2023-04-18T09:11:50.046Z,52.76
2023-04-18T09:14:24.485Z,52.36
2023-04-18T09:16:47.297Z,52.60
2023-04-18T09:19:18.568Z,52.63
2023-04-18T09:21:46.369Z,51.58
2023-04-18T09:24:24.935Z,51.17
2023-04-18T09:26:49.874Z,50.66
2023-04-18T09:29:13.664Z,51.24
2023-04-18T09:32:00.148Z,51.19
2023-04-18T09:34:27.635Z,50.21
2023-04-18T09:37:13.946Z,49.56
2023-04-18T09:39:42.825Z,50.07
2023-04-18T09:42:06.143Z,49.04
2023-04-18T09:44:29.502Z,49.21
2023-04-18T09:46:52.228Z,48.68
2023-04-18T09:49:17.878Z,49.17
2023-04-18T09:51:43.299Z,47.87
2023-04-18T09:54:06.462Z,48.01
2023-04-18T09:56:32.063Z,48.18
2023-04-18T09:59:07.314Z,48.70
2023-04-18T10:01:34.186Z,48.98
2023-04-18T10:04:01.470Z,49.34
2023-04-18T10:06:34.130Z,49.05
2023-04-18T10:11:39.148Z,47.56
2023-04-18T10:14:08.560Z,46.49
2023-04-18T10:16:34.839Z,45.73
2023-04-18T10:19:23.131Z,46.26
2023-04-18T10:22:04.017Z,46.54
2023-04-18T10:24:46.011Z,45.28
2023-04-18T10:27:08.699Z,45.50
2023-04-18T10:29:51.139Z,45.60
2023-04-18T10:32:14.107Z,46.43
2023-04-18T10:34:37.864Z,43.69
2023-04-18T10:37:04.929Z,44.22
2023-04-18T10:39:30.090Z,42.75
2023-04-18T10:41:53.913Z,43.11
2023-04-18T10:44:18.553Z,43.32
2023-04-18T10:47:18.972Z,40.59
2023-04-18T10:49:55.006Z,40.86
2023-04-18T10:52:17.890Z,40.59
2023-04-18T10:55:30.671Z,39.36
2023-04-18T10:57:59.257Z,38.10
2023-04-18T11:00:23.998Z,39.71
2023-04-18T11:02:58.233Z,39.42
2023-04-18T11:05:35.637Z,39.63
2023-04-18T11:08:00.337Z,38.40
2023-04-18T11:10:27.670Z,40.17
2023-04-18T11:12:51.346Z,40.82
2023-04-18T11:15:21.650Z,40.89
2023-04-18T11:17:45.129Z,40.97
2023-04-18T11:20:13.079Z,41.43
2023-04-18T11:22:58.813Z,42.84
2023-04-18T11:25:27.325Z,42.39
2023-04-18T11:27:57.162Z,42.15
2023-04-18T11:30:20.175Z,43.10
2023-04-18T11:32:42.977Z,43.27
2023-04-18T11:35:08.806Z,42.79
2023-04-18T11:37:32.543Z,43.72
2023-04-18T11:39:55.822Z,42.83
2023-04-18T11:42:18.564Z,41.60
2023-04-18T11:44:46.100Z,41.17
2023-04-18T11:47:29.148Z,41.51
2023-04-18T11:49:57.486Z,41.59
2023-04-18T11:52:20.763Z,40.60
2023-04-18T11:54:44.779Z,40.66
2023-04-18T11:57:20.170Z,39.70
2023-04-18T11:59:51.308Z,39.66
2023-04-18T12:02:16.762Z,40.38
2023-04-18T12:04:58.366Z,38.61
2023-04-18T12:07:37.446Z,38.84
2023-04-18T12:10:00.154Z,38.16
2023-04-18T12:12:22.782Z,38.74
2023-04-18T12:14:46.086Z,38.85
2023-04-18T12:17:08.713Z,39.18
2023-04-18T12:19:32.724Z,38.45
2023-04-18T12:22:06.809Z,37.40
2023-04-18T12:24:30.438Z,36.21
2023-04-18T12:26:53.241Z,35.83
2023-04-18T12:29:16.097Z,35.67
2023-04-18T12:31:38.774Z,35.57
2023-04-18T12:34:01.496Z,36.25
2023-04-18T12:36:24.081Z,36.95
2023-04-18T12:38:48.683Z,36.17
2023-04-18T12:41:11.446Z,35.80
2023-04-18T12:43:34.181Z,34.42
2023-04-18T12:45:57.024Z,31.89
2023-04-18T12:48:19.765Z,31.64
2023-04-18T12:50:42.711Z,30.86
2023-04-18T12:53:06.250Z,31.40
2023-04-18T12:55:29.608Z,30.97
2023-04-18T12:57:54.559Z,31.29
2023-04-18T13:00:17.378Z,31.30
2023-04-18T13:02:42.631Z,31.64
2023-04-18T13:05:07.092Z,30.83
2023-04-18T13:07:29.957Z,30.20
2023-04-18T13:09:52.745Z,31.08
2023-04-18T13:12:15.616Z,30.95
2023-04-18T13:14:39.143Z,30.84
2023-04-18T13:17:01.887Z,29.90
2023-04-18T13:19:24.569Z,30.66
2023-04-18T13:21:49.118Z,29.94
2023-04-18T13:24:12.368Z,30.36
2023-04-18T13:26:36.091Z,30.10
2023-04-18T13:28:58.678Z,30.86
2023-04-18T13:31:21.390Z,31.52
2023-04-18T13:33:44.009Z,32.17
2023-04-18T13:36:06.874Z,31.94
2023-04-18T13:38:29.890Z,32.97
2023-04-18T13:41:04.471Z,33.67
2023-04-18T13:43:33.891Z,33.82
2023-04-18T13:45:56.492Z,34.22
2023-04-18T13:48:19.524Z,32.35
2023-04-18T13:50:42.797Z,33.38
2023-04-18T13:53:05.737Z,33.28
2023-04-18T13:55:28.964Z,33.01
2023-04-18T13:57:52.204Z,32.78
2023-04-18T14:00:15.339Z,33.14
2023-04-18T14:02:38.433Z,33.83
2023-04-18T14:05:01.469Z,34.12
2023-04-18T14:07:24.392Z,34.16
2023-04-18T14:09:48.329Z,35.05
2023-04-18T14:12:11.045Z,35.80
2023-04-18T14:14:34.134Z,35.48
2023-04-18T14:16:56.920Z,36.17
2023-04-18T14:19:19.626Z,35.02
2023-04-18T14:21:42.170Z,35.58
2023-04-18T14:24:06.007Z,35.62
2023-04-18T14:26:28.758Z,33.76
2023-04-18T14:28:51.484Z,33.81
2023-04-18T14:31:14.856Z,33.39
2023-04-18T14:33:38.480Z,33.71
2023-04-18T14:36:02.567Z,33.97
2023-04-18T14:38:25.232Z,33.22
2023-04-18T14:40:48.305Z,32.40
2023-04-18T14:43:12.695Z,32.44
2023-04-18T14:45:35.394Z,31.33
2023-04-18T14:47:59.239Z,32.13
2023-04-18T14:50:22.007Z,32.62
2023-04-18T14:52:45.751Z,31.90
2023-04-18T14:55:09.655Z,30.99
2023-04-18T14:57:33.663Z,31.06
2023-04-18T14:59:56.655Z,32.00
2023-04-18T15:02:19.389Z,32.87
2023-04-18T15:04:42.516Z,33.02
2023-04-18T15:07:05.399Z,32.62
2023-04-18T15:09:28.361Z,33.57
2023-04-18T15:11:51.776Z,33.48
2023-04-18T15:14:14.682Z,33.56
2023-04-18T15:16:39.948Z,34.37
2023-04-18T15:19:02.568Z,34.47
2023-04-18T15:21:25.160Z,33.43
2023-04-18T15:23:48.059Z,33.77
2023-04-18T15:26:10.689Z,34.20
2023-04-18T15:28:33.300Z,34.10
2023-04-18T15:30:55.895Z,34.05
2023-04-18T15:33:20.492Z,35.29
2023-04-18T15:35:43.026Z,34.93
2023-04-18T15:38:06.679Z,35.29
2023-04-18T15:40:29.337Z,35.31
2023-04-18T15:42:54.138Z,36.35
2023-04-18T15:45:16.915Z,36.61
2023-04-18T15:47:40.696Z,36.81
2023-04-18T15:50:03.835Z,36.41
2023-04-18T15:52:26.838Z,37.21
2023-04-18T15:54:51.943Z,37.82
2023-04-18T15:57:14.823Z,38.46
2023-04-18T15:59:38.845Z,38.65
2023-04-18T16:02:02.213Z,38.70
2023-04-18T16:04:24.890Z,38.51
2023-04-18T16:06:48.155Z,39.00
2023-04-18T16:09:10.784Z,38.76
2023-04-18T16:11:33.481Z,39.30
2023-04-18T16:13:56.362Z,39.36
2023-04-18T16:16:19.030Z,39.85
2023-04-18T16:18:41.775Z,40.10
2023-04-18T16:21:04.781Z,40.45
2023-04-18T16:23:27.419Z,40.29
2023-04-18T16:25:51.135Z,40.49
2023-04-18T16:28:14.262Z,41.22
2023-04-18T16:30:37.567Z,41.62
2023-04-18T16:33:00.469Z,41.69
2023-04-18T16:35:23.275Z,41.58
2023-04-18T16:37:45.919Z,41.22
2023-04-18T16:40:12.328Z,41.51
2023-04-18T16:42:35.065Z,41.74
2023-04-18T16:44:57.736Z,41.95
2023-04-18T16:47:20.424Z,42.18
2023-04-18T16:49:44.935Z,42.40
2023-04-18T16:52:07.621Z,43.00
2023-04-18T16:54:31.074Z,42.37
2023-04-18T16:56:53.697Z,41.77
2023-04-18T16:59:16.859Z,41.77
2023-04-18T17:01:39.771Z,42.72
2023-04-18T17:04:03.033Z,42.63
2023-04-18T17:06:25.840Z,43.53
2023-04-18T17:08:49.199Z,42.38
2023-04-18T17:11:12.260Z,43.04
2023-04-18T17:13:36.097Z,43.93
2023-04-18T17:15:58.820Z,43.94
2023-04-18T17:18:22.244Z,43.86
2023-04-18T17:20:45.097Z,43.87
2023-04-18T17:23:07.965Z,43.97
2023-04-18T17:25:30.906Z,44.27
2023-04-18T17:27:54.037Z,43.89
2023-04-18T17:30:16.692Z,43.55
2023-04-18T17:32:45.651Z,44.32
2023-04-18T17:35:09.500Z,43.22
2023-04-18T17:37:32.202Z,43.88
2023-04-18T17:39:57.803Z,43.67
2023-04-18T17:42:21.613Z,43.80
2023-04-18T17:44:45.217Z,43.51
2023-04-18T17:47:08.202Z,43.89
2023-04-18T17:49:34.960Z,43.88
2023-04-18T17:51:58.099Z,44.29
2023-04-18T17:54:21.401Z,43.63
2023-04-18T17:56:45.557Z,43.72
2023-04-18T17:59:09.885Z,43.96
2023-04-18T18:01:34.762Z,44.35
2023-04-18T18:03:58.062Z,44.34
2023-04-18T18:06:21.475Z,44.25
2023-04-18T18:08:44.556Z,44.10
2023-04-18T18:11:07.640Z,44.22
2023-04-18T18:13:30.651Z,43.99
2023-04-18T18:15:53.773Z,43.91
2023-04-18T18:18:23.629Z,44.00
2023-04-18T18:20:47.103Z,43.90
2023-04-18T18:23:10.346Z,44.63
2023-04-18T18:25:36.419Z,45.47
2023-04-18T18:27:58.998Z,45.82
2023-04-18T18:30:22.284Z,46.97
2023-04-18T18:32:44.982Z,47.21
2023-04-18T18:35:09.882Z,46.91
2023-04-18T18:37:33.109Z,47.14
2023-04-18T18:39:56.524Z,47.40
2023-04-18T18:42:19.564Z,47.75
2023-04-18T18:44:42.476Z,47.90
2023-04-18T18:47:05.920Z,49.00
2023-04-18T18:49:28.985Z,49.28
2023-04-18T18:51:51.955Z,52.92
2023-04-18T18:54:15.088Z,55.99
2023-04-18T18:56:39.807Z,57.73
2023-04-18T18:59:02.701Z,59.31
2023-04-18T19:01:25.929Z,61.27
2023-04-18T19:03:49.110Z,62.53
2023-04-18T19:06:13.205Z,63.26
2023-04-18T19:08:36.190Z,64.33
2023-04-18T19:10:59.111Z,65.13
2023-04-18T19:13:25.636Z,65.19
2023-04-18T19:15:48.749Z,65.27
2023-04-18T19:18:18.157Z,65.71
2023-04-18T19:20:41.838Z,66.09
2023-04-18T19:23:04.864Z,66.18
2023-04-18T19:25:28.233Z,66.47
2023-04-18T19:27:51.370Z,66.83
2023-04-18T19:30:14.337Z,66.98
2023-04-18T19:32:37.878Z,67.75
2023-04-18T19:35:01.455Z,68.31
2023-04-18T19:37:25.048Z,68.91
2023-04-18T19:39:48.101Z,69.71
2023-04-18T19:42:11.669Z,68.60
2023-04-18T19:44:34.929Z,63.93
2023-04-18T19:46:57.545Z,62.13
2023-04-18T19:49:22.533Z,58.35
2023-04-18T19:51:45.503Z,58.00
2023-04-18T19:54:08.489Z,56.82
2023-04-18T19:56:31.764Z,56.24
2023-04-18T19:58:58.230Z,56.62
2023-04-18T20:01:21.599Z,53.67
2023-04-18T20:03:44.940Z,53.88
2023-04-18T20:06:08.524Z,52.13
2023-04-18T20:08:32.479Z,52.00
2023-04-18T20:10:56.316Z,50.95
2023-04-18T20:13:19.083Z,51.36
2023-04-18T20:15:42.274Z,50.50
2023-04-18T20:18:05.492Z,50.55
2023-04-18T20:20:28.411Z,50.11
2023-04-18T20:22:51.284Z,49.98
2023-04-18T20:25:14.317Z,49.87
2023-04-18T20:27:37.089Z,49.90
2023-04-18T20:30:00.302Z,49.42
2023-04-18T20:32:24.352Z,48.77
2023-04-18T20:34:47.014Z,49.37
2023-04-18T20:37:10.140Z,48.36
2023-04-18T20:39:33.865Z,49.03
2023-04-18T20:41:57.896Z,49.34
2023-04-18T20:44:21.806Z,48.95
2023-04-18T20:46:45.137Z,49.06
2023-04-18T20:49:08.878Z,49.27
2023-04-18T20:51:32.042Z,49.33
2023-04-18T20:53:54.770Z,49.42
2023-04-18T20:56:17.328Z,50.21
2023-04-18T20:58:40.635Z,49.61
2023-04-18T21:01:03.612Z,49.36
2023-04-18T21:03:26.706Z,49.38
2023-04-18T21:05:49.579Z,48.41
2023-04-18T21:08:12.723Z,49.44
2023-04-18T21:10:35.737Z,48.53
2023-04-18T21:12:58.370Z,48.65
2023-04-18T21:15:21.066Z,49.41
2023-04-18T21:17:43.800Z,49.87
2023-04-18T21:20:08.134Z,49.99
2023-04-18T21:22:30.896Z,50.27
2023-04-18T21:24:53.420Z,50.22
2023-04-18T21:27:16.360Z,49.92
2023-04-18T21:29:39.201Z,50.14
2023-04-18T21:32:02.061Z,50.70
2023-04-18T21:34:26.248Z,50.35
2023-04-18T21:36:49.084Z,50.09
2023-04-18T21:39:11.681Z,51.27
2023-04-18T21:41:34.531Z,52.20
2023-04-18T21:43:57.218Z,52.36
2023-04-18T21:46:20.326Z,52.10
2023-04-18T21:48:44.909Z,52.43
2023-04-18T21:51:09.304Z,51.59
2023-04-18T21:53:31.921Z,51.82
2023-04-18T21:55:54.494Z,52.01
2023-04-18T21:58:17.267Z,52.14
2023-04-18T22:00:39.945Z,51.81
2023-04-18T22:03:02.619Z,51.79
2023-04-18T22:05:26.378Z,52.01
2023-04-18T22:07:57.313Z,51.82
2023-04-18T22:10:21.406Z,51.85
2023-04-18T22:12:44.457Z,52.25
2023-04-18T22:15:07.548Z,52.63
2023-04-18T22:17:31.541Z,52.63
2023-04-18T22:19:54.855Z,52.86
2023-04-18T22:22:17.561Z,52.60
2023-04-18T22:24:40.296Z,52.66
2023-04-18T22:27:02.920Z,52.92
2023-04-18T22:29:25.547Z,53.34
2023-04-18T22:31:48.299Z,53.63
2023-04-18T22:34:10.923Z,53.77
2023-04-18T22:36:33.513Z,55.07
2023-04-18T22:38:56.069Z,55.92
2023-04-18T22:41:18.787Z,56.91
2023-04-18T22:43:41.469Z,56.97
2023-04-18T22:46:04.176Z,57.11
2023-04-18T22:48:26.802Z,57.56
2023-04-18T22:50:50.093Z,58.34
2023-04-18T22:53:14.365Z,59.66
2023-04-18T22:55:44.354Z,61.14
2023-04-18T22:58:08.050Z,62.07
2023-04-18T23:00:30.674Z,62.80
2023-04-18T23:02:53.600Z,63.47
2023-04-18T23:05:16.819Z,63.33
2023-04-18T23:07:39.498Z,63.59
2023-04-18T23:10:05.548Z,63.74
2023-04-18T23:12:28.553Z,63.36
2023-04-18T23:14:51.185Z,63.58
2023-04-18T23:17:13.793Z,62.53
2023-04-18T23:19:36.633Z,62.92
2023-04-18T23:21:59.702Z,62.78
2023-04-18T23:24:23.099Z,63.04
2023-04-18T23:26:45.630Z,62.58
2023-04-18T23:29:08.301Z,62.40
2023-04-18T23:31:32.987Z,61.93
2023-04-18T23:33:56.497Z,62.13
2023-04-18T23:36:19.136Z,62.61
2023-04-18T23:38:42.518Z,62.21
2023-04-18T23:41:05.566Z,62.32
2023-04-18T23:43:28.238Z,62.50
2023-04-18T23:45:50.911Z,63.54
2023-04-18T23:48:13.593Z,62.86
2023-04-18T23:50:57.241Z,62.25
2023-04-18T23:53:21.762Z,62.51
2023-04-18T23:55:44.463Z,62.56
2023-04-18T23:58:07.391Z,62.08
